createdAt,value
2022-08-26T00:00:10.616Z,99.12
2022-08-26T00:01:10.576Z,99.32
2022-08-26T00:02:10.609Z,99.22
2022-08-26T00:03:10.553Z,99.52
2022-08-26T00:04:10.594Z,99.32
2022-08-26T00:05:10.547Z,99.52
2022-08-26T00:06:10.516Z,99.52
2022-08-26T00:07:10.500Z,99.42
2022-08-26T00:08:10.498Z,99.32
2022-08-26T00:09:10.477Z,99.42
2022-08-26T00:10:10.488Z,99.62
2022-08-26T00:11:10.447Z,99.62
2022-08-26T00:12:12.415Z,99.67
2022-08-26T00:13:10.417Z,99.57
2022-08-26T00:14:10.407Z,99.67
2022-08-26T00:15:10.424Z,99.67
2022-08-26T00:16:10.441Z,99.57
2022-08-26T00:17:10.367Z,99.77
2022-08-26T00:18:21.795Z,99.99
2022-08-26T00:19:11.337Z,99.99
2022-08-26T00:20:10.367Z,99.99
2022-08-26T00:21:10.320Z,99.98
2022-08-26T00:22:10.307Z,99.87
2022-08-26T00:23:10.287Z,99.98
2022-08-26T00:24:10.305Z,99.99
2022-08-26T00:25:10.289Z,99.99
2022-08-26T00:26:11.080Z,99.99
2022-08-26T00:27:10.241Z,99.99
2022-08-26T00:28:10.854Z,99.99
2022-08-26T00:29:10.218Z,99.99
2022-08-26T00:30:10.232Z,99.99
2022-08-26T00:31:10.966Z,99.99
2022-08-26T00:32:10.211Z,99.99
2022-08-26T00:33:10.362Z,99.99
2022-08-26T00:34:11.326Z,99.99
2022-08-26T00:35:10.159Z,99.99
2022-08-26T00:36:14.429Z,99.99
2022-08-26T00:37:14.528Z,99.99
2022-08-26T00:38:11.097Z,99.99
2022-08-26T00:39:10.099Z,99.99
2022-08-26T00:40:10.138Z,99.92
2022-08-26T00:41:10.050Z,99.99
2022-08-26T00:42:10.049Z,99.99
2022-08-26T00:43:10.077Z,99.99
2022-08-26T00:44:10.023Z,99.99
2022-08-26T00:45:10.195Z,99.99
2022-08-26T00:46:10.019Z,99.99
2022-08-26T00:47:09.979Z,99.99
2022-08-26T00:48:09.967Z,99.99
2022-08-26T00:49:11.723Z,99.99
2022-08-26T00:50:09.969Z,99.99
2022-08-26T00:51:09.949Z,99.99
2022-08-26T00:52:09.974Z,99.99
2022-08-26T00:53:09.898Z,99.99
2022-08-26T00:54:10.694Z,99.99
2022-08-26T00:55:09.892Z,99.99
2022-08-26T00:56:09.867Z,99.99
2022-08-26T00:57:16.332Z,99.99
2022-08-26T00:58:10.837Z,99.99
2022-08-26T00:59:09.822Z,99.99
2022-08-26T01:00:09.829Z,99.99
2022-08-26T01:01:09.844Z,99.99
2022-08-26T01:02:20.817Z,99.99
2022-08-26T01:03:12.726Z,99.99
2022-08-26T01:04:09.762Z,99.99
2022-08-26T01:05:09.781Z,99.99
2022-08-26T01:06:12.541Z,99.99
2022-08-26T01:07:09.710Z,99.99
2022-08-26T01:08:09.700Z,99.99
2022-08-26T01:09:09.770Z,99.99
2022-08-26T01:10:09.771Z,99.99
2022-08-26T01:11:09.661Z,99.99
2022-08-26T01:12:09.650Z,99.99
2022-08-26T01:13:09.650Z,99.99
2022-08-26T01:14:09.628Z,99.99
2022-08-26T01:15:09.630Z,99.99
2022-08-26T01:16:09.627Z,99.99
2022-08-26T01:17:09.580Z,99.99
2022-08-26T01:18:09.579Z,99.99
2022-08-26T01:19:09.550Z,99.99
2022-08-26T01:20:09.572Z,99.99
2022-08-26T01:21:09.529Z,99.99
2022-08-26T01:22:09.522Z,99.99
2022-08-26T01:23:09.508Z,99.99
2022-08-26T01:24:10.260Z,99.99
2022-08-26T01:25:09.504Z,99.99
2022-08-26T01:26:09.468Z,99.99
2022-08-26T01:27:10.465Z,99.99
2022-08-26T01:28:09.432Z,99.99
2022-08-26T01:29:09.421Z,99.99
2022-08-26T01:30:09.450Z,99.99
2022-08-26T01:31:09.436Z,99.99
2022-08-26T01:32:09.382Z,99.99
2022-08-26T01:33:09.420Z,99.99
2022-08-26T01:34:09.358Z,99.99
2022-08-26T01:35:09.398Z,99.99
2022-08-26T01:36:09.330Z,99.99
2022-08-26T01:37:15.503Z,99.99
2022-08-26T01:38:10.309Z,99.99
2022-08-26T01:39:09.292Z,99.99
2022-08-26T01:40:09.417Z,99.99
2022-08-26T01:41:16.171Z,99.99
2022-08-26T01:42:10.471Z,99.99
2022-08-26T01:43:09.437Z,99.99
2022-08-26T01:44:09.814Z,99.99
2022-08-26T01:45:09.231Z,99.99
2022-08-26T01:46:09.242Z,99.99
2022-08-26T01:47:09.213Z,99.99
2022-08-26T01:48:09.182Z,99.99
2022-08-26T01:49:09.162Z,99.99
2022-08-26T01:50:09.171Z,99.99
2022-08-26T01:51:09.132Z,99.99
2022-08-26T01:52:09.113Z,99.99
2022-08-26T01:53:09.508Z,99.99
2022-08-26T01:54:12.084Z,99.99
2022-08-26T01:55:09.102Z,99.99
2022-08-26T01:56:09.063Z,99.99
2022-08-26T01:57:09.053Z,99.99
2022-08-26T01:58:09.033Z,99.99
2022-08-26T01:59:09.453Z,99.99
2022-08-26T02:00:09.033Z,99.99
2022-08-26T02:01:09.759Z,99.99
2022-08-26T02:02:09.018Z,99.99
2022-08-26T02:03:08.982Z,99.99
2022-08-26T02:04:09.027Z,99.99
2022-08-26T02:05:08.983Z,99.99
2022-08-26T02:06:09.317Z,99.99
2022-08-26T02:07:08.924Z,99.99
2022-08-26T02:08:08.904Z,99.99
2022-08-26T02:09:08.903Z,99.99
2022-08-26T02:10:09.303Z,99.99
2022-08-26T02:11:08.864Z,99.99
2022-08-26T02:12:08.854Z,99.99
2022-08-26T02:13:08.916Z,99.99
2022-08-26T02:14:08.833Z,99.99
2022-08-26T02:15:08.843Z,99.99
2022-08-26T02:16:08.856Z,99.99
2022-08-26T02:17:08.788Z,99.99
2022-08-26T02:18:08.775Z,99.99
2022-08-26T02:19:09.766Z,99.99
2022-08-26T02:20:10.715Z,99.99
2022-08-26T02:21:08.744Z,99.99
2022-08-26T02:22:08.724Z,99.99
2022-08-26T02:23:08.808Z,99.99
2022-08-26T02:24:08.697Z,99.99
2022-08-26T02:25:08.716Z,99.99
2022-08-26T02:26:08.664Z,99.99
2022-08-26T02:27:08.662Z,99.99
2022-08-26T02:28:08.635Z,99.99
2022-08-26T02:29:08.624Z,99.99
2022-08-26T02:30:08.646Z,99.99
2022-08-26T02:31:08.625Z,99.99
2022-08-26T02:32:08.586Z,99.99
2022-08-26T02:33:08.842Z,99.99
2022-08-26T02:34:08.564Z,99.99
2022-08-26T02:35:08.574Z,99.99
2022-08-26T02:36:08.536Z,99.99
2022-08-26T02:37:08.576Z,99.99
2022-08-26T02:38:09.823Z,99.99
2022-08-26T02:39:08.496Z,99.99
2022-08-26T02:40:08.558Z,99.99
2022-08-26T02:41:09.120Z,99.99
2022-08-26T02:42:08.456Z,99.99
2022-08-26T02:43:08.767Z,99.99
2022-08-26T02:44:08.425Z,99.99
2022-08-26T02:45:08.452Z,99.99
2022-08-26T02:46:08.406Z,99.99
2022-08-26T02:47:08.448Z,99.99
2022-08-26T02:48:08.375Z,99.99
2022-08-26T02:49:08.365Z,99.99
2022-08-26T02:50:08.375Z,99.99
2022-08-26T02:51:08.345Z,99.99
2022-08-26T02:52:08.324Z,99.99
2022-08-26T02:53:08.467Z,99.99
2022-08-26T02:54:08.304Z,99.99
2022-08-26T02:55:08.326Z,99.99
2022-08-26T02:56:08.275Z,99.99
2022-08-26T02:57:08.267Z,99.99
2022-08-26T02:58:08.254Z,99.99
2022-08-26T02:59:08.243Z,99.99
2022-08-26T03:00:08.246Z,99.99
2022-08-26T03:01:08.259Z,99.99
2022-08-26T03:02:08.267Z,99.99
2022-08-26T03:03:08.335Z,99.99
2022-08-26T03:04:08.195Z,99.99
2022-08-26T03:05:08.197Z,99.99
2022-08-26T03:06:08.144Z,99.99
2022-08-26T03:07:08.127Z,99.99
2022-08-26T03:08:08.127Z,99.99
2022-08-26T03:09:08.107Z,99.99
2022-08-26T03:10:08.734Z,99.99
2022-08-26T03:11:08.086Z,99.99
2022-08-26T03:12:08.277Z,99.99
2022-08-26T03:13:08.216Z,99.99
2022-08-26T03:14:08.037Z,99.99
2022-08-26T03:15:16.006Z,99.99
2022-08-26T03:16:09.060Z,99.99
2022-08-26T03:17:08.004Z,99.99
2022-08-26T03:18:07.985Z,99.99
2022-08-26T03:19:07.977Z,99.99
2022-08-26T03:20:07.976Z,99.99
2022-08-26T03:21:07.946Z,99.99
2022-08-26T03:22:07.927Z,99.99
2022-08-26T03:23:08.120Z,99.99
2022-08-26T03:24:07.898Z,99.99
2022-08-26T03:25:07.927Z,99.99
2022-08-26T03:26:07.909Z,99.99
2022-08-26T03:27:07.877Z,99.99
2022-08-26T03:28:07.861Z,99.99
2022-08-26T03:29:07.845Z,99.99
2022-08-26T03:30:07.855Z,99.99
2022-08-26T03:31:07.827Z,99.99
2022-08-26T03:32:07.797Z,99.99
2022-08-26T03:33:08.051Z,99.99
2022-08-26T03:34:07.825Z,99.99
2022-08-26T03:35:07.787Z,99.99
2022-08-26T03:36:07.738Z,99.99
2022-08-26T03:37:07.741Z,99.99
2022-08-26T03:38:07.719Z,99.99
2022-08-26T03:39:07.707Z,99.99
2022-08-26T03:40:07.782Z,99.99
2022-08-26T03:41:07.685Z,99.99
2022-08-26T03:42:07.658Z,99.99
2022-08-26T03:43:09.597Z,99.99
2022-08-26T03:44:07.638Z,99.99
2022-08-26T03:45:07.660Z,99.99
2022-08-26T03:46:07.576Z,99.99
2022-08-26T03:47:07.609Z,99.99
2022-08-26T03:48:07.606Z,99.99
2022-08-26T03:49:07.575Z,99.99
2022-08-26T03:50:07.588Z,99.99
2022-08-26T03:51:07.548Z,99.99
2022-08-26T03:52:07.489Z,99.99
2022-08-26T03:53:12.649Z,99.99
2022-08-26T03:54:08.495Z,99.99
2022-08-26T03:55:07.526Z,99.99
2022-08-26T03:56:07.478Z,99.99
2022-08-26T03:57:07.468Z,99.99
2022-08-26T03:58:07.448Z,99.99
2022-08-26T03:59:07.488Z,99.99
2022-08-26T04:00:07.412Z,99.99
2022-08-26T04:01:07.423Z,99.99
2022-08-26T04:02:11.375Z,99.99
2022-08-26T04:03:09.714Z,99.99
2022-08-26T04:04:07.333Z,99.99
2022-08-26T04:05:07.338Z,99.99
2022-08-26T04:06:07.324Z,99.99
2022-08-26T04:07:07.279Z,99.99
2022-08-26T04:08:07.270Z,99.99
2022-08-26T04:09:07.260Z,99.99
2022-08-26T04:10:07.239Z,99.99
2022-08-26T04:11:07.629Z,99.99
2022-08-26T04:12:07.219Z,99.99
2022-08-26T04:13:07.441Z,99.99
2022-08-26T04:14:07.229Z,99.99
2022-08-26T04:15:07.361Z,99.99
2022-08-26T04:16:07.403Z,99.99
2022-08-26T04:17:07.360Z,99.99
2022-08-26T04:18:07.309Z,99.99
2022-08-26T04:19:07.463Z,99.99
2022-08-26T04:20:07.720Z,99.99
2022-08-26T04:21:07.832Z,99.99
2022-08-26T04:22:07.240Z,99.99
2022-08-26T04:23:07.249Z,99.99
2022-08-26T04:24:10.283Z,99.99
2022-08-26T04:25:08.042Z,99.93
2022-08-26T04:26:07.250Z,99.93
2022-08-26T04:27:07.110Z,99.83
2022-08-26T04:28:07.025Z,99.83
2022-08-26T04:29:06.990Z,99.73
2022-08-26T04:30:06.981Z,99.73
2022-08-26T04:31:07.019Z,99.73
2022-08-26T04:32:07.001Z,99.73
2022-08-26T04:33:12.746Z,99.77
2022-08-26T04:34:07.923Z,99.62
2022-08-26T04:35:06.916Z,99.62
2022-08-26T04:36:06.936Z,99.77
2022-08-26T04:37:07.868Z,99.77
2022-08-26T04:38:06.880Z,99.67
2022-08-26T04:39:06.861Z,99.57
2022-08-26T04:40:06.869Z,99.47
2022-08-26T04:41:06.863Z,99.77
2022-08-26T04:42:07.951Z,99.99
2022-08-26T04:43:07.031Z,99.98
2022-08-26T04:44:06.791Z,99.87
2022-08-26T04:45:10.414Z,99.87
2022-08-26T04:46:06.872Z,99.99
2022-08-26T04:47:06.751Z,99.99
2022-08-26T04:48:06.738Z,99.99
2022-08-26T04:49:06.728Z,99.99
2022-08-26T04:50:06.723Z,99.99
2022-08-26T04:51:06.765Z,99.99
2022-08-26T04:52:06.768Z,99.99
2022-08-26T04:53:07.190Z,99.99
2022-08-26T04:54:06.660Z,99.99
2022-08-26T04:55:08.409Z,99.99
2022-08-26T04:56:06.661Z,99.99
2022-08-26T04:57:06.636Z,99.99
2022-08-26T04:58:06.603Z,99.99
2022-08-26T04:59:07.242Z,99.99
2022-08-26T05:00:06.581Z,99.99
2022-08-26T05:01:06.594Z,99.99
2022-08-26T05:02:06.612Z,99.99
2022-08-26T05:03:06.680Z,99.99
2022-08-26T05:04:08.085Z,99.99
2022-08-26T05:05:06.520Z,99.99
2022-08-26T05:06:06.527Z,99.99
2022-08-26T05:07:06.503Z,99.99
2022-08-26T05:08:06.473Z,99.98
2022-08-26T05:09:06.558Z,99.98
2022-08-26T05:10:08.764Z,99.98
2022-08-26T05:11:06.473Z,99.98
2022-08-26T05:12:06.441Z,99.98
2022-08-26T05:13:11.211Z,99.98
2022-08-26T05:14:07.420Z,99.88
2022-08-26T05:15:06.424Z,99.68
2022-08-26T05:16:06.477Z,99.53
2022-08-26T05:17:06.391Z,99.63
2022-08-26T05:18:06.362Z,99.63
2022-08-26T05:19:06.364Z,99.53
2022-08-26T05:20:06.342Z,99.33
2022-08-26T05:21:06.333Z,99.43
2022-08-26T05:22:06.284Z,99.38
2022-08-26T05:23:06.296Z,99.08
2022-08-26T05:24:06.283Z,98.98
2022-08-26T05:25:06.251Z,98.88
2022-08-26T05:26:06.276Z,98.37
2022-08-26T05:27:07.498Z,98.33
2022-08-26T05:28:07.204Z,98.47
2022-08-26T05:29:06.206Z,98.37
2022-08-26T05:30:06.174Z,98.22
2022-08-26T05:31:06.243Z,98.13
2022-08-26T05:32:06.234Z,97.92
2022-08-26T05:33:06.271Z,97.62
2022-08-26T05:34:15.764Z,97.52
2022-08-26T05:35:08.961Z,97.32
2022-08-26T05:36:06.965Z,97.07
2022-08-26T05:37:06.276Z,96.97
2022-08-26T05:38:10.385Z,96.56
2022-08-26T05:39:07.074Z,96.67
2022-08-26T05:40:06.071Z,96.56
2022-08-26T05:41:08.844Z,96.16
2022-08-26T05:42:06.082Z,95.76
2022-08-26T05:43:06.143Z,95.92
2022-08-26T05:44:06.219Z,95.92
2022-08-26T05:45:06.187Z,95.72
2022-08-26T05:46:07.683Z,95.72
2022-08-26T05:47:05.996Z,95.92
2022-08-26T05:48:06.199Z,95.57
2022-08-26T05:49:05.945Z,94.76
2022-08-26T05:50:12.144Z,94.96
2022-08-26T05:51:06.036Z,95.02
2022-08-26T05:52:05.916Z,94.92
2022-08-26T05:53:05.888Z,94.82
2022-08-26T05:54:05.876Z,94.62
2022-08-26T05:55:10.055Z,94.42
2022-08-26T05:56:05.888Z,94.37
2022-08-26T05:57:05.843Z,94.37
2022-08-26T05:58:05.835Z,94.37
2022-08-26T05:59:05.814Z,94.47
2022-08-26T06:00:06.783Z,94.37
2022-08-26T06:01:05.837Z,94.23
2022-08-26T06:02:05.827Z,94.02
2022-08-26T06:03:05.818Z,94.13
2022-08-26T06:04:05.739Z,94.13
2022-08-26T06:05:05.717Z,93.68
2022-08-26T06:06:05.737Z,93.48
2022-08-26T06:07:05.704Z,93.28
2022-08-26T06:08:05.687Z,93.18
2022-08-26T06:09:05.667Z,93.03
2022-08-26T06:10:30.985Z,92.93
2022-08-26T06:11:06.669Z,92.83
2022-08-26T06:12:05.627Z,92.73
2022-08-26T06:13:11.526Z,92.69
2022-08-26T06:14:07.127Z,92.79
2022-08-26T06:15:05.615Z,92.84
2022-08-26T06:16:05.672Z,92.65
2022-08-26T06:17:05.698Z,92.54
2022-08-26T06:18:05.744Z,92.30
2022-08-26T06:19:10.410Z,92.10
2022-08-26T06:20:06.712Z,91.89
2022-08-26T06:21:05.688Z,91.85
2022-08-26T06:22:05.519Z,91.55
2022-08-26T06:23:05.567Z,91.55
2022-08-26T06:24:05.488Z,91.20
2022-08-26T06:25:05.459Z,90.91
2022-08-26T06:26:05.492Z,90.81
2022-08-26T06:27:05.437Z,90.77
2022-08-26T06:28:05.529Z,90.06
2022-08-26T06:29:05.613Z,89.72
2022-08-26T06:30:11.079Z,89.52
2022-08-26T06:31:06.202Z,89.22
2022-08-26T06:32:05.454Z,89.07
2022-08-26T06:33:05.423Z,89.37
2022-08-26T06:34:10.399Z,89.07
2022-08-26T06:35:06.347Z,88.78
2022-08-26T06:36:07.230Z,88.57
2022-08-26T06:37:05.302Z,87.87
2022-08-26T06:38:05.291Z,87.73
2022-08-26T06:39:05.280Z,87.34
2022-08-26T06:40:05.309Z,87.43
2022-08-26T06:41:05.287Z,87.53
2022-08-26T06:42:06.287Z,87.73
2022-08-26T06:43:05.266Z,88.13
2022-08-26T06:44:05.292Z,87.83
2022-08-26T06:45:05.200Z,87.79
2022-08-26T06:46:05.275Z,87.99
2022-08-26T06:47:05.171Z,87.49
2022-08-26T06:48:05.162Z,87.39
2022-08-26T06:49:05.151Z,86.99
2022-08-26T06:50:05.142Z,86.89
2022-08-26T06:51:05.161Z,86.55
2022-08-26T06:52:05.119Z,86.35
2022-08-26T06:53:05.155Z,86.65
2022-08-26T06:54:05.103Z,86.21
2022-08-26T06:55:05.072Z,85.91
2022-08-26T06:56:05.092Z,85.51
2022-08-26T06:57:05.080Z,85.31
2022-08-26T06:58:05.063Z,84.87
2022-08-26T06:59:05.053Z,84.17
2022-08-26T07:00:05.013Z,83.97
2022-08-26T07:01:09.533Z,84.07
2022-08-26T07:02:06.117Z,84.17
2022-08-26T07:03:05.053Z,84.07
2022-08-26T07:04:05.177Z,83.47
2022-08-26T07:05:05.974Z,82.93
2022-08-26T07:06:04.946Z,83.13
2022-08-26T07:07:04.991Z,82.09
2022-08-26T07:08:04.924Z,81.99
2022-08-26T07:09:05.034Z,81.40
2022-08-26T07:10:04.885Z,81.76
2022-08-26T07:11:04.866Z,81.66
2022-08-26T07:12:04.887Z,81.66
2022-08-26T07:13:06.005Z,81.56
2022-08-26T07:14:04.855Z,81.85
2022-08-26T07:15:04.835Z,81.96
2022-08-26T07:16:04.863Z,81.56
2022-08-26T07:17:04.817Z,81.85
2022-08-26T07:18:04.896Z,82.15
2022-08-26T07:19:10.777Z,81.66
2022-08-26T07:20:05.756Z,81.46
2022-08-26T07:21:04.749Z,81.85
2022-08-26T07:22:04.760Z,81.56
2022-08-26T07:23:04.889Z,81.56
2022-08-26T07:24:05.706Z,81.52
2022-08-26T07:25:04.688Z,81.02
2022-08-26T07:26:04.787Z,80.32
2022-08-26T07:27:05.414Z,78.69
2022-08-26T07:28:04.663Z,77.80
2022-08-26T07:29:04.648Z,78.65
2022-08-26T07:30:04.630Z,77.66
2022-08-26T07:31:04.646Z,75.43
2022-08-26T07:32:04.660Z,76.82
2022-08-26T07:33:04.690Z,75.73
2022-08-26T07:34:04.587Z,75.69
2022-08-26T07:35:04.579Z,76.59
2022-08-26T07:36:04.549Z,75.59
2022-08-26T07:37:04.559Z,75.16
2022-08-26T07:38:04.528Z,72.08
2022-08-26T07:39:04.509Z,69.69
2022-08-26T07:40:04.548Z,69.85
2022-08-26T07:41:04.479Z,70.65
2022-08-26T07:42:07.530Z,69.43
2022-08-26T07:43:04.505Z,70.02
2022-08-26T07:44:04.450Z,66.94
2022-08-26T07:45:04.465Z,66.94
2022-08-26T07:46:04.416Z,66.91
2022-08-26T07:47:10.252Z,66.31
2022-08-26T07:48:05.390Z,66.11
2022-08-26T07:49:04.471Z,66.08
2022-08-26T07:50:04.371Z,67.54
2022-08-26T07:51:04.351Z,65.03
2022-08-26T07:52:04.361Z,64.50
2022-08-26T07:53:04.467Z,62.79
2022-08-26T07:54:04.312Z,61.87
2022-08-26T07:55:04.304Z,60.25
2022-08-26T07:56:04.290Z,58.87
2022-08-26T07:57:05.121Z,60.72
2022-08-26T07:58:05.273Z,59.23
2022-08-26T07:59:04.252Z,59.73
2022-08-26T08:00:05.360Z,61.88
2022-08-26T08:01:04.260Z,59.93
2022-08-26T08:02:04.247Z,58.54
2022-08-26T08:03:04.204Z,58.45
2022-08-26T08:04:04.197Z,59.33
2022-08-26T08:05:04.225Z,59.44
2022-08-26T08:06:04.244Z,60.69
2022-08-26T08:07:04.165Z,59.31
2022-08-26T08:08:26.352Z,59.11
2022-08-26T08:09:05.117Z,61.08
2022-08-26T08:10:09.202Z,59.11
2022-08-26T08:11:05.098Z,58.22
2022-08-26T08:12:04.146Z,58.39
2022-08-26T08:13:04.066Z,57.28
2022-08-26T08:14:04.215Z,56.56
2022-08-26T08:15:04.103Z,55.62
2022-08-26T08:16:04.207Z,55.68
2022-08-26T08:17:04.190Z,54.40
2022-08-26T08:18:04.368Z,55.39
2022-08-26T08:19:03.986Z,53.69
2022-08-26T08:20:03.977Z,58.02
2022-08-26T08:21:21.073Z,56.05
2022-08-26T08:22:17.887Z,54.87
2022-08-26T08:23:05.035Z,54.84
2022-08-26T08:24:04.103Z,54.05
2022-08-26T08:25:06.224Z,54.28
2022-08-26T08:26:03.899Z,53.52
2022-08-26T08:27:03.920Z,54.63
2022-08-26T08:28:03.871Z,54.23
2022-08-26T08:29:03.859Z,54.82
2022-08-26T08:30:03.852Z,54.90
2022-08-26T08:31:03.877Z,54.47
2022-08-26T08:32:06.806Z,55.56
2022-08-26T08:33:04.803Z,55.76
2022-08-26T08:34:03.790Z,54.57
2022-08-26T08:35:10.872Z,55.24
2022-08-26T08:36:04.760Z,53.74
2022-08-26T08:37:06.148Z,53.64
2022-08-26T08:38:04.651Z,51.93
2022-08-26T08:39:03.772Z,52.72
2022-08-26T08:40:03.856Z,53.58
2022-08-26T08:41:03.703Z,50.32
2022-08-26T08:42:03.723Z,53.44
2022-08-26T08:43:03.806Z,50.76
2022-08-26T08:44:03.661Z,49.21
2022-08-26T08:45:03.643Z,50.81
2022-08-26T08:46:03.898Z,50.93
2022-08-26T08:47:03.643Z,52.99
2022-08-26T08:48:03.614Z,53.51
2022-08-26T08:49:03.591Z,55.08
2022-08-26T08:50:03.594Z,53.36
2022-08-26T08:51:04.355Z,56.42
2022-08-26T08:52:04.248Z,54.72
2022-08-26T08:53:03.544Z,55.58
2022-08-26T08:54:04.525Z,53.09
2022-08-26T08:55:03.626Z,52.08
2022-08-26T08:56:03.506Z,51.69
2022-08-26T08:57:03.527Z,51.30
2022-08-26T08:58:03.485Z,51.00
2022-08-26T08:59:03.469Z,53.27
2022-08-26T09:00:03.465Z,52.18
2022-08-26T09:01:03.454Z,52.18
2022-08-26T09:02:03.512Z,50.21
2022-08-26T09:03:03.415Z,51.81
2022-08-26T09:04:03.408Z,51.72
2022-08-26T09:05:03.388Z,52.70
2022-08-26T09:06:03.378Z,52.89
2022-08-26T09:07:03.399Z,54.20
2022-08-26T09:08:03.402Z,52.95
2022-08-26T09:09:03.349Z,53.78
2022-08-26T09:10:03.349Z,54.50
2022-08-26T09:11:03.421Z,56.33
2022-08-26T09:12:03.329Z,57.51
2022-08-26T09:13:03.290Z,56.30
2022-08-26T09:14:03.483Z,57.36
2022-08-26T09:15:03.400Z,57.60
2022-08-26T09:16:04.003Z,53.93
2022-08-26T09:17:03.399Z,56.27
2022-08-26T09:18:04.525Z,53.49
2022-08-26T09:19:03.262Z,54.25
2022-08-26T09:20:03.358Z,51.59
2022-08-26T09:21:03.182Z,53.06
2022-08-26T09:22:08.812Z,52.48
2022-08-26T09:23:04.163Z,54.76
2022-08-26T09:24:03.153Z,51.81
2022-08-26T09:25:03.144Z,52.21
2022-08-26T09:26:03.135Z,52.31
2022-08-26T09:27:03.144Z,52.89
2022-08-26T09:28:03.688Z,52.89
2022-08-26T09:29:03.094Z,52.01
2022-08-26T09:30:03.076Z,53.27
2022-08-26T09:31:04.092Z,52.55
2022-08-26T09:32:03.093Z,52.62
2022-08-26T09:33:03.136Z,51.05
2022-08-26T09:34:04.314Z,52.13
2022-08-26T09:35:03.016Z,52.52
2022-08-26T09:36:03.147Z,50.66
2022-08-26T09:37:04.760Z,51.17
2022-08-26T09:38:02.978Z,51.69
2022-08-26T09:39:02.957Z,52.14
2022-08-26T09:40:03.258Z,54.13
2022-08-26T09:41:03.007Z,54.82
2022-08-26T09:42:02.959Z,54.30
2022-08-26T09:43:02.908Z,53.81
2022-08-26T09:44:02.900Z,54.20
2022-08-26T09:45:02.880Z,53.51
2022-08-26T09:46:03.663Z,53.83
2022-08-26T09:47:03.678Z,53.56
2022-08-26T09:48:03.200Z,55.07
2022-08-26T09:49:02.830Z,55.14
2022-08-26T09:50:03.126Z,55.04
2022-08-26T09:51:03.866Z,54.64
2022-08-26T09:52:02.921Z,53.93
2022-08-26T09:53:02.947Z,53.54
2022-08-26T09:54:03.781Z,54.20
2022-08-26T09:55:03.419Z,52.89
2022-08-26T09:56:02.751Z,52.75
2022-08-26T09:57:02.792Z,52.42
2022-08-26T09:58:04.174Z,51.42
2022-08-26T09:59:03.836Z,53.28
2022-08-26T10:00:02.695Z,50.22
2022-08-26T10:01:02.738Z,51.49
2022-08-26T10:02:02.855Z,50.93
2022-08-26T10:03:03.706Z,50.98
2022-08-26T10:04:03.348Z,52.60
2022-08-26T10:05:09.514Z,53.56
2022-08-26T10:06:03.623Z,52.80
2022-08-26T10:07:02.913Z,54.66
2022-08-26T10:08:02.731Z,55.85
2022-08-26T10:09:08.323Z,54.37
2022-08-26T10:10:03.579Z,53.44
2022-08-26T10:11:02.694Z,53.70
2022-08-26T10:12:03.053Z,52.30
2022-08-26T10:13:02.690Z,52.37
2022-08-26T10:14:02.526Z,52.64
2022-08-26T10:15:02.558Z,51.05
2022-08-26T10:16:02.608Z,50.44
2022-08-26T10:17:02.603Z,51.12
2022-08-26T10:18:02.475Z,49.24
2022-08-26T10:19:02.723Z,49.24
2022-08-26T10:20:02.558Z,47.77
2022-08-26T10:21:02.440Z,48.36
2022-08-26T10:22:02.659Z,48.77
2022-08-26T10:23:02.477Z,49.19
2022-08-26T10:24:02.391Z,50.27
2022-08-26T10:25:02.718Z,49.29
2022-08-26T10:26:02.376Z,50.76
2022-08-26T10:27:02.380Z,49.77
2022-08-26T10:28:02.345Z,52.20
2022-08-26T10:29:02.344Z,49.85
2022-08-26T10:30:02.320Z,49.24
2022-08-26T10:31:02.322Z,48.26
2022-08-26T10:32:02.740Z,49.55
2022-08-26T10:33:02.330Z,49.65
2022-08-26T10:34:02.444Z,49.95
2022-08-26T10:35:02.502Z,49.73
2022-08-26T10:36:02.243Z,51.39
2022-08-26T10:37:14.430Z,50.44
2022-08-26T10:38:03.353Z,51.22
2022-08-26T10:39:02.215Z,51.12
2022-08-26T10:40:02.443Z,50.83
2022-08-26T10:41:02.197Z,51.42
2022-08-26T10:42:02.205Z,52.08
2022-08-26T10:43:03.480Z,50.32
2022-08-26T10:44:03.137Z,49.73
2022-08-26T10:45:02.132Z,48.72
2022-08-26T10:46:02.267Z,49.02
2022-08-26T10:47:02.139Z,48.53
2022-08-26T10:48:02.135Z,48.53
2022-08-26T10:49:03.269Z,49.31
2022-08-26T10:50:03.171Z,49.24
2022-08-26T10:51:02.247Z,49.33
2022-08-26T10:52:02.338Z,49.65
2022-08-26T10:53:03.108Z,50.54
2022-08-26T10:54:02.109Z,50.51
2022-08-26T10:55:02.010Z,49.04
2022-08-26T10:56:02.079Z,49.95
2022-08-26T10:57:02.010Z,50.73
2022-08-26T10:58:08.099Z,51.10
2022-08-26T10:59:02.949Z,49.43
2022-08-26T11:00:02.089Z,50.81
2022-08-26T11:01:01.984Z,50.90
2022-08-26T11:02:03.742Z,49.58
2022-08-26T11:03:02.027Z,50.68
2022-08-26T11:04:01.941Z,50.49
2022-08-26T11:05:01.882Z,50.61
2022-08-26T11:06:01.870Z,52.40
2022-08-26T11:07:01.900Z,51.32
2022-08-26T11:08:01.886Z,51.03
2022-08-26T11:09:01.843Z,52.20
2022-08-26T11:10:01.812Z,53.06
2022-08-26T11:11:01.811Z,50.61
2022-08-26T11:12:06.780Z,51.27
2022-08-26T11:13:02.774Z,50.59
2022-08-26T11:14:01.766Z,49.90
2022-08-26T11:15:01.776Z,50.22
2022-08-26T11:16:01.744Z,50.93
2022-08-26T11:17:01.842Z,52.01
2022-08-26T11:18:01.856Z,52.11
2022-08-26T11:19:01.749Z,51.32
2022-08-26T11:20:07.415Z,51.62
2022-08-26T11:21:02.815Z,50.22
2022-08-26T11:22:01.897Z,51.59
2022-08-26T11:23:01.757Z,50.88
2022-08-26T11:24:01.715Z,49.31
2022-08-26T11:25:01.631Z,50.68
2022-08-26T11:26:02.338Z,49.90
2022-08-26T11:27:01.636Z,50.09
2022-08-26T11:28:01.659Z,49.02
2022-08-26T11:29:03.173Z,50.39
2022-08-26T11:30:01.569Z,49.53
2022-08-26T11:31:01.580Z,49.85
2022-08-26T11:32:01.618Z,50.85
2022-08-26T11:33:01.534Z,54.00
2022-08-26T11:34:01.511Z,52.23
2022-08-26T11:35:01.510Z,51.72
2022-08-26T11:36:01.620Z,51.39
2022-08-26T11:37:02.511Z,52.08
2022-08-26T11:38:01.463Z,51.76
2022-08-26T11:39:02.706Z,49.73
2022-08-26T11:40:01.658Z,50.02
2022-08-26T11:41:01.636Z,51.10
2022-08-26T11:42:01.513Z,51.03
2022-08-26T11:43:01.411Z,51.00
2022-08-26T11:44:01.663Z,50.42
2022-08-26T11:45:05.318Z,50.81
2022-08-26T11:46:01.432Z,50.81
2022-08-26T11:47:01.463Z,51.66
2022-08-26T11:48:01.375Z,50.29
2022-08-26T11:49:01.561Z,50.49
2022-08-26T11:50:01.315Z,50.78
2022-08-26T11:51:01.362Z,49.97
2022-08-26T11:52:01.296Z,51.73
2022-08-26T11:53:01.342Z,50.04
2022-08-26T11:54:01.274Z,50.83
2022-08-26T11:55:01.266Z,49.63
2022-08-26T11:56:01.246Z,50.42
2022-08-26T11:57:03.763Z,49.65
2022-08-26T11:58:02.330Z,49.87
2022-08-26T11:59:01.208Z,50.68
2022-08-26T12:00:01.187Z,51.72
2022-08-26T12:01:01.179Z,51.84
2022-08-26T12:02:01.178Z,54.32
2022-08-26T12:03:01.201Z,53.41
2022-08-26T12:04:01.371Z,53.90
2022-08-26T12:05:01.229Z,52.42
2022-08-26T12:06:01.180Z,53.31
2022-08-26T12:07:01.110Z,53.50
2022-08-26T12:08:01.206Z,53.73
2022-08-26T12:09:01.089Z,53.73
2022-08-26T12:10:02.094Z,54.00
2022-08-26T12:11:01.062Z,54.88
2022-08-26T12:12:01.043Z,53.09
2022-08-26T12:13:01.062Z,52.47
2022-08-26T12:14:01.020Z,52.35
2022-08-26T12:15:01.033Z,52.55
2022-08-26T12:16:01.192Z,52.25
2022-08-26T12:17:00.983Z,53.26
2022-08-26T12:18:00.993Z,53.16
2022-08-26T12:19:00.964Z,53.77
2022-08-26T12:20:00.945Z,53.31
2022-08-26T12:21:00.937Z,56.18
2022-08-26T12:22:00.924Z,55.79
2022-08-26T12:23:00.964Z,54.68
2022-08-26T12:24:00.895Z,54.58
2022-08-26T12:25:01.615Z,53.80
2022-08-26T12:26:00.882Z,54.81
2022-08-26T12:27:00.956Z,54.91
2022-08-26T12:28:01.358Z,55.47
2022-08-26T12:29:00.836Z,54.39
2022-08-26T12:30:00.828Z,53.80
2022-08-26T12:31:00.961Z,54.29
2022-08-26T12:32:00.845Z,54.29
2022-08-26T12:33:00.816Z,54.81
2022-08-26T12:34:00.768Z,53.92
2022-08-26T12:35:00.813Z,57.46
2022-08-26T12:36:00.753Z,54.71
2022-08-26T12:37:00.823Z,54.61
2022-08-26T12:38:00.881Z,55.20
2022-08-26T12:39:00.808Z,55.08
2022-08-26T12:40:00.726Z,55.27
2022-08-26T12:41:00.690Z,54.95
2022-08-26T12:42:00.790Z,55.51
2022-08-26T12:43:00.690Z,54.24
2022-08-26T12:44:00.702Z,53.16
2022-08-26T12:45:00.631Z,53.26
2022-08-26T12:46:00.712Z,53.97
2022-08-26T12:47:00.614Z,53.80
2022-08-26T12:48:00.622Z,54.52
2022-08-26T12:49:00.582Z,55.69
2022-08-26T12:50:00.683Z,56.11
2022-08-26T12:51:00.563Z,55.52
2022-08-26T12:52:00.555Z,56.04